Portada
METAR-TAF:

METAR-TAF

Aeroports :

Sarakhs, Iran

latitud: 36-30-04N, longitud: 061-03-54E, altitud: 288 m

Observació

L'informe es va fer fa 51 minuts, a les 03:00 UTC
Vent 4 kt del Sud-Est
Temperatura 7°C
Humitat 61%
Pressió 1022 hPa

METAR: OIMC 210300Z AUTO 14004KT //// // ////// 07/00 Q1022

Hora: 07:21 (03:51 UTC)


TAF: manca

Observacions i pronòstics meteorològics de més de 4000 aeroports (METAR i TAF).

Les estacions disponibles són els punts grocs i vermells al mapa.

Posi el ratolí al punt desitjat per veure el nom de l'estació.

Feu clic per veure les observacions i els pronòstics meteorològics.

Per canviar el mapa: feu clic els botons verds amb una creu de color negre per apropar; al botó verd amb un guió per allunyar la imatge; o en les fletxes verdes per a mapes adjacents.


METAR-TAF: